sensor_id;sensor_type;location;lat;lon;timestamp;P1;durP1;ratioP1;P2;durP2;ratioP2
69841;SDS011;57138;51.326;-0.068;2023-10-13T00:00:40;4.00;;;1.00;;
69841;SDS011;57138;51.326;-0.068;2023-10-13T00:03:10;4.88;;;1.13;;
69841;SDS011;57138;51.326;-0.068;2023-10-13T00:05:43;4.82;;;1.10;;
69841;SDS011;57138;51.326;-0.068;2023-10-13T00:08:09;2.60;;;1.08;;
69841;SDS011;57138;51.326;-0.068;2023-10-13T00:10:35;4.20;;;1.33;;
69841;SDS011;57138;51.326;-0.068;2023-10-13T00:13:01;6.35;;;0.85;;
69841;SDS011;57138;51.326;-0.068;2023-10-13T00:15:47;2.33;;;0.75;;
69841;SDS011;57138;51.326;-0.068;2023-10-13T00:18:29;2.53;;;1.05;;
69841;SDS011;57138;51.326;-0.068;2023-10-13T00:21:12;4.85;;;1.00;;
69841;SDS011;57138;51.326;-0.068;2023-10-13T00:23:38;1.77;;;0.73;;
69841;SDS011;57138;51.326;-0.068;2023-10-13T00:26:19;2.55;;;0.88;;
69841;SDS011;57138;51.326;-0.068;2023-10-13T00:28:52;3.97;;;0.93;;
69841;SDS011;57138;51.326;-0.068;2023-10-13T00:31:38;2.92;;;0.82;;
69841;SDS011;57138;51.326;-0.068;2023-10-13T00:34:08;4.15;;;0.80;;
69841;SDS011;57138;51.326;-0.068;2023-10-13T00:36:37;4.53;;;0.85;;
69841;SDS011;57138;51.326;-0.068;2023-10-13T00:39:13;2.17;;;0.90;;
69841;SDS011;57138;51.326;-0.068;2023-10-13T00:41:44;3.33;;;1.27;;
69841;SDS011;57138;51.326;-0.068;2023-10-13T00:44:17;3.95;;;1.20;;
69841;SDS011;57138;51.326;-0.068;2023-10-13T00:46:53;3.20;;;0.93;;
69841;SDS011;57138;51.326;-0.068;2023-10-13T00:49:21;3.00;;;0.80;;
69841;SDS011;57138;51.326;-0.068;2023-10-13T00:51:47;6.72;;;0.70;;
69841;SDS011;57138;51.326;-0.068;2023-10-13T00:54:13;1.23;;;0.50;;
69841;SDS011;57138;51.326;-0.068;2023-10-13T00:56:43;1.30;;;0.60;;
69841;SDS011;57138;51.326;-0.068;2023-10-13T01:02:00;5.10;;;0.50;;
69841;SDS011;57138;51.326;-0.068;2023-10-13T01:04:45;3.25;;;1.02;;
69841;SDS011;57138;51.326;-0.068;2023-10-13T01:07:12;3.22;;;0.70;;
69841;SDS011;57138;51.326;-0.068;2023-10-13T01:09:41;3.72;;;0.93;;
69841;SDS011;57138;51.326;-0.068;2023-10-13T01:12:07;5.90;;;1.55;;
69841;SDS011;57138;51.326;-0.068;2023-10-13T01:14:33;3.13;;;0.80;;
69841;SDS011;57138;51.326;-0.068;2023-10-13T01:17:02;4.07;;;0.95;;
69841;SDS011;57138;51.326;-0.068;2023-10-13T01:19:29;4.43;;;1.13;;
69841;SDS011;57138;51.326;-0.068;2023-10-13T01:21:54;11.95;;;2.38;;
69841;SDS011;57138;51.326;-0.068;2023-10-13T01:24:27;8.70;;;2.72;;
69841;SDS011;57138;51.326;-0.068;2023-10-13T01:26:59;10.85;;;2.80;;
69841;SDS011;57138;51.326;-0.068;2023-10-13T01:29:32;13.10;;;3.42;;
69841;SDS011;57138;51.326;-0.068;2023-10-13T01:31:59;1.15;;;0.55;;
69841;SDS011;57138;51.326;-0.068;2023-10-13T01:34:24;0.10;;;0.10;;
69841;SDS011;57138;51.326;-0.068;2023-10-13T01:36:53;0.10;;;0.10;;
69841;SDS011;57138;51.326;-0.068;2023-10-13T01:39:21;0.57;;;0.57;;
69841;SDS011;57138;51.326;-0.068;2023-10-13T01:41:51;0.20;;;0.20;;
69841;SDS011;57138;51.326;-0.068;2023-10-13T01:44:20;0.10;;;0.10;;
69841;SDS011;57138;51.326;-0.068;2023-10-13T01:46:46;0.10;;;0.10;;
69841;SDS011;57138;51.326;-0.068;2023-10-13T01:49:13;0.10;;;0.10;;
69841;SDS011;57138;51.326;-0.068;2023-10-13T01:51:40;0.50;;;0.50;;
69841;SDS011;57138;51.326;-0.068;2023-10-13T01:54:06;0.10;;;0.10;;
69841;SDS011;57138;51.326;-0.068;2023-10-13T01:56:37;0.93;;;0.93;;
69841;SDS011;57138;51.326;-0.068;2023-10-13T01:59:07;3.20;;;1.48;;
69841;SDS011;57138;51.326;-0.068;2023-10-13T02:01:36;1.38;;;0.30;;
69841;SDS011;57138;51.326;-0.068;2023-10-13T02:04:01;0.10;;;0.10;;
69841;SDS011;57138;51.326;-0.068;2023-10-13T02:06:31;0.10;;;0.10;;
69841;SDS011;57138;51.326;-0.068;2023-10-13T02:08:59;0.10;;;0.10;;
69841;SDS011;57138;51.326;-0.068;2023-10-13T02:11:42;0.20;;;0.20;;
69841;SDS011;57138;51.326;-0.068;2023-10-13T02:14:14;0.98;;;0.73;;
69841;SDS011;57138;51.326;-0.068;2023-10-13T02:16:43;1.65;;;1.55;;
69841;SDS011;57138;51.326;-0.068;2023-10-13T02:19:11;0.10;;;0.10;;
69841;SDS011;57138;51.326;-0.068;2023-10-13T02:21:44;0.10;;;0.10;;
69841;SDS011;57138;51.326;-0.068;2023-10-13T02:24:10;0.77;;;0.77;;
69841;SDS011;57138;51.326;-0.068;2023-10-13T02:26:43;0.10;;;0.10;;
69841;SDS011;57138;51.326;-0.068;2023-10-13T02:29:09;0.10;;;0.10;;
69841;SDS011;57138;51.326;-0.068;2023-10-13T02:31:38;0.47;;;0.47;;
69841;SDS011;57138;51.326;-0.068;2023-10-13T02:34:05;0.20;;;0.20;;
69841;SDS011;57138;51.326;-0.068;2023-10-13T02:36:37;1.00;;;0.95;;
69841;SDS011;57138;51.326;-0.068;2023-10-13T02:39:13;7.93;;;2.40;;
69841;SDS011;57138;51.326;-0.068;2023-10-13T02:41:41;2.65;;;1.70;;
69841;SDS011;57138;51.326;-0.068;2023-10-13T02:44:12;1.30;;;1.20;;
69841;SDS011;57138;51.326;-0.068;2023-10-13T02:46:51;0.10;;;0.10;;
69841;SDS011;57138;51.326;-0.068;2023-10-13T02:49:17;0.45;;;0.45;;
69841;SDS011;57138;51.326;-0.068;2023-10-13T02:51:47;3.17;;;1.10;;
69841;SDS011;57138;51.326;-0.068;2023-10-13T02:54:12;0.20;;;0.20;;
69841;SDS011;57138;51.326;-0.068;2023-10-13T02:56:43;0.10;;;0.10;;
69841;SDS011;57138;51.326;-0.068;2023-10-13T02:59:31;0.13;;;0.13;;
69841;SDS011;57138;51.326;-0.068;2023-10-13T03:02:12;0.82;;;0.82;;
69841;SDS011;57138;51.326;-0.068;2023-10-13T03:04:55;0.30;;;0.30;;
69841;SDS011;57138;51.326;-0.068;2023-10-13T03:07:28;0.10;;;0.10;;
69841;SDS011;57138;51.326;-0.068;2023-10-13T03:09:54;0.57;;;0.57;;
69841;SDS011;57138;51.326;-0.068;2023-10-13T03:12:25;1.55;;;1.05;;
69841;SDS011;57138;51.326;-0.068;2023-10-13T03:14:58;0.10;;;0.10;;
69841;SDS011;57138;51.326;-0.068;2023-10-13T03:17:40;0.65;;;0.65;;
69841;SDS011;57138;51.326;-0.068;2023-10-13T03:20:09;0.10;;;0.10;;
69841;SDS011;57138;51.326;-0.068;2023-10-13T03:22:41;0.57;;;0.57;;
69841;SDS011;57138;51.326;-0.068;2023-10-13T03:25:10;0.10;;;0.10;;
69841;SDS011;57138;51.326;-0.068;2023-10-13T03:27:43;0.90;;;0.73;;
69841;SDS011;57138;51.326;-0.068;2023-10-13T03:30:20;3.20;;;1.17;;
69841;SDS011;57138;51.326;-0.068;2023-10-13T03:32:47;0.40;;;0.40;;
69841;SDS011;57138;51.326;-0.068;2023-10-13T03:35:22;1.10;;;1.00;;
69841;SDS011;57138;51.326;-0.068;2023-10-13T03:37:53;0.63;;;0.63;;
69841;SDS011;57138;51.326;-0.068;2023-10-13T03:40:22;0.10;;;0.10;;
69841;SDS011;57138;51.326;-0.068;2023-10-13T03:42:48;0.95;;;0.63;;
69841;SDS011;57138;51.326;-0.068;2023-10-13T03:45:38;0.70;;;0.63;;
69841;SDS011;57138;51.326;-0.068;2023-10-13T03:48:17;0.10;;;0.10;;
69841;SDS011;57138;51.326;-0.068;2023-10-13T03:50:49;1.08;;;1.02;;
69841;SDS011;57138;51.326;-0.068;2023-10-13T03:53:37;0.10;;;0.10;;
69841;SDS011;57138;51.326;-0.068;2023-10-13T03:56:17;0.10;;;0.10;;
69841;SDS011;57138;51.326;-0.068;2023-10-13T03:59:02;0.10;;;0.10;;
69841;SDS011;57138;51.326;-0.068;2023-10-13T04:01:33;0.20;;;0.20;;
69841;SDS011;57138;51.326;-0.068;2023-10-13T04:04:25;0.10;;;0.10;;
69841;SDS011;57138;51.326;-0.068;2023-10-13T04:07:03;3.08;;;2.35;;
69841;SDS011;57138;51.326;-0.068;2023-10-13T04:09:37;0.10;;;0.10;;
69841;SDS011;57138;51.326;-0.068;2023-10-13T04:12:15;0.82;;;0.65;;
69841;SDS011;57138;51.326;-0.068;2023-10-13T04:14:59;1.50;;;0.93;;
69841;SDS011;57138;51.326;-0.068;2023-10-13T04:17:30;0.20;;;0.20;;
69841;SDS011;57138;51.326;-0.068;2023-10-13T04:20:05;1.20;;;1.10;;
69841;SDS011;57138;51.326;-0.068;2023-10-13T04:22:38;1.73;;;0.85;;
69841;SDS011;57138;51.326;-0.068;2023-10-13T04:25:20;1.15;;;0.90;;
69841;SDS011;57138;51.326;-0.068;2023-10-13T04:28:21;0.30;;;0.30;;
69841;SDS011;57138;51.326;-0.068;2023-10-13T04:31:03;0.43;;;0.43;;
69841;SDS011;57138;51.326;-0.068;2023-10-13T04:33:51;0.20;;;0.20;;
69841;SDS011;57138;51.326;-0.068;2023-10-13T04:36:18;0.55;;;0.55;;
69841;SDS011;57138;51.326;-0.068;2023-10-13T04:38:58;0.10;;;0.10;;
69841;SDS011;57138;51.326;-0.068;2023-10-13T04:44:18;0.47;;;0.47;;
69841;SDS011;57138;51.326;-0.068;2023-10-13T04:47:02;15.02;;;2.25;;
69841;SDS011;57138;51.326;-0.068;2023-10-13T04:49:28;0.10;;;0.10;;
69841;SDS011;57138;51.326;-0.068;2023-10-13T04:52:04;1.50;;;0.85;;
69841;SDS011;57138;51.326;-0.068;2023-10-13T04:54:34;3.30;;;0.57;;
69841;SDS011;57138;51.326;-0.068;2023-10-13T04:57:16;10.32;;;4.57;;
69841;SDS011;57138;51.326;-0.068;2023-10-13T04:59:49;16.45;;;6.35;;
69841;SDS011;57138;51.326;-0.068;2023-10-13T05:02:34;22.30;;;7.93;;
69841;SDS011;57138;51.326;-0.068;2023-10-13T05:05:00;27.00;;;6.68;;
69841;SDS011;57138;51.326;-0.068;2023-10-13T05:07:47;14.80;;;3.97;;
69841;SDS011;57138;51.326;-0.068;2023-10-13T05:10:33;27.92;;;7.85;;
69841;SDS011;57138;51.326;-0.068;2023-10-13T05:13:20;19.80;;;5.03;;
69841;SDS011;57138;51.326;-0.068;2023-10-13T05:16:27;36.53;;;9.75;;
69841;SDS011;57138;51.326;-0.068;2023-10-13T05:19:11;33.17;;;7.38;;
69841;SDS011;57138;51.326;-0.068;2023-10-13T05:21:55;42.92;;;10.57;;
69841;SDS011;57138;51.326;-0.068;2023-10-13T05:24:46;18.00;;;5.80;;
69841;SDS011;57138;51.326;-0.068;2023-10-13T05:27:32;28.20;;;7.07;;
69841;SDS011;57138;51.326;-0.068;2023-10-13T05:30:16;32.90;;;8.85;;
69841;SDS011;57138;51.326;-0.068;2023-10-13T05:33:03;37.40;;;9.25;;
69841;SDS011;57138;51.326;-0.068;2023-10-13T05:35:48;24.38;;;7.30;;
69841;SDS011;57138;51.326;-0.068;2023-10-13T05:38:32;23.27;;;6.43;;
69841;SDS011;57138;51.326;-0.068;2023-10-13T05:41:17;23.25;;;7.97;;
69841;SDS011;57138;51.326;-0.068;2023-10-13T05:44:01;34.10;;;10.55;;
69841;SDS011;57138;51.326;-0.068;2023-10-13T05:46:45;31.98;;;8.35;;
69841;SDS011;57138;51.326;-0.068;2023-10-13T05:49:14;15.90;;;4.22;;
69841;SDS011;57138;51.326;-0.068;2023-10-13T05:51:43;27.77;;;7.35;;
69841;SDS011;57138;51.326;-0.068;2023-10-13T05:54:28;27.63;;;7.93;;
69841;SDS011;57138;51.326;-0.068;2023-10-13T05:57:12;37.72;;;8.25;;
69841;SDS011;57138;51.326;-0.068;2023-10-13T05:59:56;38.08;;;9.10;;
69841;SDS011;57138;51.326;-0.068;2023-10-13T06:02:40;22.58;;;4.88;;
69841;SDS011;57138;51.326;-0.068;2023-10-13T06:05:27;32.88;;;7.43;;
69841;SDS011;57138;51.326;-0.068;2023-10-13T06:08:11;32.20;;;6.72;;
69841;SDS011;57138;51.326;-0.068;2023-10-13T06:11:02;28.17;;;8.80;;
69841;SDS011;57138;51.326;-0.068;2023-10-13T06:13:47;39.15;;;8.50;;
69841;SDS011;57138;51.326;-0.068;2023-10-13T06:19:29;39.72;;;10.32;;
69841;SDS011;57138;51.326;-0.068;2023-10-13T06:22:24;30.35;;;9.18;;
69841;SDS011;57138;51.326;-0.068;2023-10-13T06:25:10;34.88;;;8.55;;
69841;SDS011;57138;51.326;-0.068;2023-10-13T06:28:13;36.90;;;8.27;;
69841;SDS011;57138;51.326;-0.068;2023-10-13T06:31:00;35.25;;;8.15;;
69841;SDS011;57138;51.326;-0.068;2023-10-13T06:33:32;29.77;;;7.07;;
69841;SDS011;57138;51.326;-0.068;2023-10-13T06:36:01;41.53;;;9.85;;
69841;SDS011;57138;51.326;-0.068;2023-10-13T06:38:40;30.95;;;7.80;;
69841;SDS011;57138;51.326;-0.068;2023-10-13T06:41:06;23.77;;;6.88;;
69841;SDS011;57138;51.326;-0.068;2023-10-13T06:43:46;32.78;;;8.23;;
69841;SDS011;57138;51.326;-0.068;2023-10-13T06:46:25;33.20;;;6.78;;
69841;SDS011;57138;51.326;-0.068;2023-10-13T06:49:00;45.20;;;9.80;;
69841;SDS011;57138;51.326;-0.068;2023-10-13T06:51:27;31.10;;;7.07;;
69841;SDS011;57138;51.326;-0.068;2023-10-13T06:54:03;38.72;;;7.75;;
69841;SDS011;57138;51.326;-0.068;2023-10-13T06:56:38;35.30;;;8.90;;
69841;SDS011;57138;51.326;-0.068;2023-10-13T06:59:06;29.48;;;8.38;;
69841;SDS011;57138;51.326;-0.068;2023-10-13T07:01:33;44.55;;;9.40;;
69841;SDS011;57138;51.326;-0.068;2023-10-13T07:04:10;35.22;;;8.68;;
69841;SDS011;57138;51.326;-0.068;2023-10-13T07:06:40;31.30;;;7.05;;
69841;SDS011;57138;51.326;-0.068;2023-10-13T07:09:30;23.30;;;5.53;;
69841;SDS011;57138;51.326;-0.068;2023-10-13T07:11:59;42.00;;;10.10;;
69841;SDS011;57138;51.326;-0.068;2023-10-13T07:14:28;33.50;;;9.32;;
69841;SDS011;57138;51.326;-0.068;2023-10-13T07:16:59;37.53;;;7.85;;
69841;SDS011;57138;51.326;-0.068;2023-10-13T07:19:30;31.58;;;7.50;;
69841;SDS011;57138;51.326;-0.068;2023-10-13T07:21:56;35.95;;;7.63;;
69841;SDS011;57138;51.326;-0.068;2023-10-13T07:24:33;34.55;;;8.38;;
69841;SDS011;57138;51.326;-0.068;2023-10-13T07:27:04;29.23;;;7.60;;
69841;SDS011;57138;51.326;-0.068;2023-10-13T07:29:31;24.35;;;6.05;;
69841;SDS011;57138;51.326;-0.068;2023-10-13T07:31:59;33.15;;;7.10;;
69841;SDS011;57138;51.326;-0.068;2023-10-13T07:34:28;29.25;;;7.07;;
69841;SDS011;57138;51.326;-0.068;2023-10-13T07:36:57;30.27;;;7.15;;
69841;SDS011;57138;51.326;-0.068;2023-10-13T07:39:28;29.27;;;7.60;;
69841;SDS011;57138;51.326;-0.068;2023-10-13T07:42:06;31.73;;;6.72;;
69841;SDS011;57138;51.326;-0.068;2023-10-13T07:44:40;35.35;;;6.78;;
69841;SDS011;57138;51.326;-0.068;2023-10-13T07:47:10;34.90;;;8.80;;
69841;SDS011;57138;51.326;-0.068;2023-10-13T07:49:37;32.28;;;6.47;;
69841;SDS011;57138;51.326;-0.068;2023-10-13T07:52:11;27.83;;;6.80;;
69841;SDS011;57138;51.326;-0.068;2023-10-13T07:54:49;35.83;;;8.40;;
69841;SDS011;57138;51.326;-0.068;2023-10-13T07:57:38;21.67;;;6.45;;
69841;SDS011;57138;51.326;-0.068;2023-10-13T08:00:23;27.63;;;7.07;;
69841;SDS011;57138;51.326;-0.068;2023-10-13T08:03:01;17.95;;;5.35;;
69841;SDS011;57138;51.326;-0.068;2023-10-13T08:05:53;21.75;;;6.00;;
69841;SDS011;57138;51.326;-0.068;2023-10-13T08:08:40;29.73;;;7.63;;
69841;SDS011;57138;51.326;-0.068;2023-10-13T08:11:11;21.15;;;5.68;;
69841;SDS011;57138;51.326;-0.068;2023-10-13T08:13:59;32.05;;;7.65;;
69841;SDS011;57138;51.326;-0.068;2023-10-13T08:16:31;28.65;;;6.90;;
69841;SDS011;57138;51.326;-0.068;2023-10-13T08:19:16;19.17;;;6.25;;
69841;SDS011;57138;51.326;-0.068;2023-10-13T08:21:48;15.93;;;6.65;;
69841;SDS011;57138;51.326;-0.068;2023-10-13T08:24:24;15.00;;;6.45;;
69841;SDS011;57138;51.326;-0.068;2023-10-13T08:26:54;20.00;;;6.80;;
69841;SDS011;57138;51.326;-0.068;2023-10-13T08:29:43;20.00;;;7.45;;
69841;SDS011;57138;51.326;-0.068;2023-10-13T08:32:24;25.85;;;8.23;;
69841;SDS011;57138;51.326;-0.068;2023-10-13T08:34:50;29.33;;;8.75;;
69841;SDS011;57138;51.326;-0.068;2023-10-13T08:37:19;30.08;;;9.80;;
69841;SDS011;57138;51.326;-0.068;2023-10-13T08:39:48;25.30;;;9.35;;
69841;SDS011;57138;51.326;-0.068;2023-10-13T08:42:36;28.02;;;9.02;;
69841;SDS011;57138;51.326;-0.068;2023-10-13T08:45:11;24.65;;;9.02;;
69841;SDS011;57138;51.326;-0.068;2023-10-13T08:47:50;28.20;;;10.02;;
69841;SDS011;57138;51.326;-0.068;2023-10-13T08:50:32;27.20;;;9.77;;
69841;SDS011;57138;51.326;-0.068;2023-10-13T08:53:21;32.75;;;11.70;;
69841;SDS011;57138;51.326;-0.068;2023-10-13T08:58:35;21.92;;;9.02;;
69841;SDS011;57138;51.326;-0.068;2023-10-13T09:01:32;26.27;;;9.98;;
69841;SDS011;57138;51.326;-0.068;2023-10-13T09:07:05;32.00;;;11.00;;
69841;SDS011;57138;51.326;-0.068;2023-10-13T09:09:44;28.73;;;9.63;;
69841;SDS011;57138;51.326;-0.068;2023-10-13T09:12:11;32.85;;;8.77;;
69841;SDS011;57138;51.326;-0.068;2023-10-13T09:14:39;27.08;;;8.80;;
69841;SDS011;57138;51.326;-0.068;2023-10-13T09:17:21;30.50;;;9.65;;
69841;SDS011;57138;51.326;-0.068;2023-10-13T09:20:08;25.15;;;9.27;;
69841;SDS011;57138;51.326;-0.068;2023-10-13T09:22:47;27.23;;;8.63;;
69841;SDS011;57138;51.326;-0.068;2023-10-13T09:28:18;23.95;;;9.45;;
69841;SDS011;57138;51.326;-0.068;2023-10-13T09:30:47;31.13;;;9.70;;
69841;SDS011;57138;51.326;-0.068;2023-10-13T09:33:21;24.58;;;9.48;;
69841;SDS011;57138;51.326;-0.068;2023-10-13T09:36:18;27.45;;;9.60;;
69841;SDS011;57138;51.326;-0.068;2023-10-13T09:38:44;20.10;;;9.25;;
69841;SDS011;57138;51.326;-0.068;2023-10-13T09:41:29;27.70;;;9.73;;
69841;SDS011;57138;51.326;-0.068;2023-10-13T09:43:57;22.70;;;8.77;;
69841;SDS011;57138;51.326;-0.068;2023-10-13T09:46:23;20.83;;;8.85;;
69841;SDS011;57138;51.326;-0.068;2023-10-13T09:48:54;21.23;;;9.18;;
69841;SDS011;57138;51.326;-0.068;2023-10-13T09:51:39;24.90;;;8.80;;
69841;SDS011;57138;51.326;-0.068;2023-10-13T09:54:27;23.85;;;8.60;;
69841;SDS011;57138;51.326;-0.068;2023-10-13T09:57:00;20.15;;;8.50;;
69841;SDS011;57138;51.326;-0.068;2023-10-13T09:59:39;23.52;;;8.73;;
69841;SDS011;57138;51.326;-0.068;2023-10-13T10:02:17;34.35;;;11.30;;
69841;SDS011;57138;51.326;-0.068;2023-10-13T10:07:37;25.20;;;11.15;;
69841;SDS011;57138;51.326;-0.068;2023-10-13T10:10:05;27.42;;;10.60;;
69841;SDS011;57138;51.326;-0.068;2023-10-13T10:18:17;28.65;;;9.43;;
69841;SDS011;57138;51.326;-0.068;2023-10-13T10:20:47;30.10;;;9.75;;
69841;SDS011;57138;51.326;-0.068;2023-10-13T10:23:26;18.52;;;7.78;;
69841;SDS011;57138;51.326;-0.068;2023-10-13T10:26:14;23.75;;;8.60;;
69841;SDS011;57138;51.326;-0.068;2023-10-13T10:28:44;33.38;;;10.07;;
69841;SDS011;57138;51.326;-0.068;2023-10-13T10:31:11;29.27;;;9.60;;
69841;SDS011;57138;51.326;-0.068;2023-10-13T10:33:44;26.08;;;9.80;;
69841;SDS011;57138;51.326;-0.068;2023-10-13T10:36:15;34.40;;;10.68;;
69841;SDS011;57138;51.326;-0.068;2023-10-13T10:38:55;22.48;;;8.60;;
69841;SDS011;57138;51.326;-0.068;2023-10-13T10:41:25;25.85;;;9.57;;
69841;SDS011;57138;51.326;-0.068;2023-10-13T10:44:09;29.13;;;8.50;;
69841;SDS011;57138;51.326;-0.068;2023-10-13T10:46:40;28.00;;;8.95;;
69841;SDS011;57138;51.326;-0.068;2023-10-13T10:49:07;36.28;;;11.80;;
69841;SDS011;57138;51.326;-0.068;2023-10-13T10:51:33;31.38;;;8.75;;
69841;SDS011;57138;51.326;-0.068;2023-10-13T10:54:17;33.28;;;9.38;;
69841;SDS011;57138;51.326;-0.068;2023-10-13T10:56:44;27.67;;;9.57;;
69841;SDS011;57138;51.326;-0.068;2023-10-13T10:59:17;30.67;;;8.98;;
69841;SDS011;57138;51.326;-0.068;2023-10-13T11:01:50;27.50;;;10.10;;
69841;SDS011;57138;51.326;-0.068;2023-10-13T11:04:18;30.08;;;9.43;;
69841;SDS011;57138;51.326;-0.068;2023-10-13T11:06:47;30.33;;;11.23;;
69841;SDS011;57138;51.326;-0.068;2023-10-13T11:09:14;35.92;;;10.85;;
69841;SDS011;57138;51.326;-0.068;2023-10-13T11:11:50;36.70;;;9.77;;
69841;SDS011;57138;51.326;-0.068;2023-10-13T11:16:50;33.05;;;9.88;;
69841;SDS011;57138;51.326;-0.068;2023-10-13T11:19:37;46.08;;;11.43;;
69841;SDS011;57138;51.326;-0.068;2023-10-13T11:22:10;37.88;;;11.57;;
69841;SDS011;57138;51.326;-0.068;2023-10-13T11:24:48;39.13;;;12.02;;
69841;SDS011;57138;51.326;-0.068;2023-10-13T11:27:16;39.22;;;11.10;;
69841;SDS011;57138;51.326;-0.068;2023-10-13T11:29:46;29.60;;;10.15;;
69841;SDS011;57138;51.326;-0.068;2023-10-13T11:32:17;41.30;;;11.70;;
69841;SDS011;57138;51.326;-0.068;2023-10-13T11:34:45;37.42;;;10.85;;
69841;SDS011;57138;51.326;-0.068;2023-10-13T11:37:10;34.40;;;9.43;;
69841;SDS011;57138;51.326;-0.068;2023-10-13T11:40:02;27.98;;;8.00;;
69841;SDS011;57138;51.326;-0.068;2023-10-13T11:42:35;39.95;;;8.95;;
69841;SDS011;57138;51.326;-0.068;2023-10-13T11:45:01;29.10;;;7.72;;
69841;SDS011;57138;51.326;-0.068;2023-10-13T11:47:46;29.20;;;6.88;;
69841;SDS011;57138;51.326;-0.068;2023-10-13T11:50:25;34.97;;;8.88;;
69841;SDS011;57138;51.326;-0.068;2023-10-13T11:55:37;33.85;;;7.93;;
69841;SDS011;57138;51.326;-0.068;2023-10-13T11:58:03;32.75;;;9.25;;
69841;SDS011;57138;51.326;-0.068;2023-10-13T12:00:33;26.73;;;7.00;;
69841;SDS011;57138;51.326;-0.068;2023-10-13T12:03:26;25.95;;;5.75;;
69841;SDS011;57138;51.326;-0.068;2023-10-13T12:06:10;22.95;;;5.82;;
69841;SDS011;57138;51.326;-0.068;2023-10-13T12:08:48;21.10;;;4.88;;
69841;SDS011;57138;51.326;-0.068;2023-10-13T12:11:17;32.17;;;5.75;;
69841;SDS011;57138;51.326;-0.068;2023-10-13T12:13:56;22.77;;;4.25;;
69841;SDS011;57138;51.326;-0.068;2023-10-13T12:16:22;30.65;;;5.70;;
69841;SDS011;57138;51.326;-0.068;2023-10-13T12:18:59;25.95;;;5.55;;
69841;SDS011;57138;51.326;-0.068;2023-10-13T12:21:26;21.92;;;4.68;;
69841;SDS011;57138;51.326;-0.068;2023-10-13T12:23:52;22.25;;;4.47;;
69841;SDS011;57138;51.326;-0.068;2023-10-13T12:26:19;21.85;;;4.38;;
69841;SDS011;57138;51.326;-0.068;2023-10-13T12:28:47;23.60;;;5.00;;
69841;SDS011;57138;51.326;-0.068;2023-10-13T12:31:42;20.17;;;4.22;;
69841;SDS011;57138;51.326;-0.068;2023-10-13T12:34:16;24.30;;;4.00;;
69841;SDS011;57138;51.326;-0.068;2023-10-13T12:39:45;23.27;;;4.85;;
69841;SDS011;57138;51.326;-0.068;2023-10-13T12:42:38;24.40;;;5.45;;
69841;SDS011;57138;51.326;-0.068;2023-10-13T12:45:22;25.83;;;4.57;;
69841;SDS011;57138;51.326;-0.068;2023-10-13T12:48:10;23.70;;;4.63;;
69841;SDS011;57138;51.326;-0.068;2023-10-13T12:51:00;22.05;;;4.45;;
69841;SDS011;57138;51.326;-0.068;2023-10-13T12:53:44;27.40;;;5.65;;
69841;SDS011;57138;51.326;-0.068;2023-10-13T12:56:13;19.83;;;3.70;;
69841;SDS011;57138;51.326;-0.068;2023-10-13T12:58:53;22.75;;;4.13;;
69841;SDS011;57138;51.326;-0.068;2023-10-13T13:01:25;25.05;;;4.28;;
69841;SDS011;57138;51.326;-0.068;2023-10-13T13:03:58;23.05;;;4.22;;
69841;SDS011;57138;51.326;-0.068;2023-10-13T13:06:30;15.68;;;3.53;;
69841;SDS011;57138;51.326;-0.068;2023-10-13T13:08:56;21.25;;;3.63;;
69841;SDS011;57138;51.326;-0.068;2023-10-13T13:11:24;24.75;;;4.25;;
69841;SDS011;57138;51.326;-0.068;2023-10-13T13:13:52;16.77;;;3.47;;
69841;SDS011;57138;51.326;-0.068;2023-10-13T13:16:20;28.88;;;4.90;;
69841;SDS011;57138;51.326;-0.068;2023-10-13T13:19:04;20.67;;;3.40;;
69841;SDS011;57138;51.326;-0.068;2023-10-13T13:21:36;16.73;;;2.97;;
69841;SDS011;57138;51.326;-0.068;2023-10-13T13:24:03;19.27;;;3.00;;
69841;SDS011;57138;51.326;-0.068;2023-10-13T13:26:37;23.35;;;4.20;;
69841;SDS011;57138;51.326;-0.068;2023-10-13T13:32:02;14.73;;;2.88;;
69841;SDS011;57138;51.326;-0.068;2023-10-13T13:34:32;15.68;;;3.17;;
69841;SDS011;57138;51.326;-0.068;2023-10-13T13:36:58;14.60;;;3.30;;
69841;SDS011;57138;51.326;-0.068;2023-10-13T13:39:29;17.60;;;3.78;;
69841;SDS011;57138;51.326;-0.068;2023-10-13T13:41:56;15.65;;;2.92;;
69841;SDS011;57138;51.326;-0.068;2023-10-13T13:44:24;19.50;;;3.70;;
69841;SDS011;57138;51.326;-0.068;2023-10-13T13:47:01;20.60;;;3.70;;
69841;SDS011;57138;51.326;-0.068;2023-10-13T13:49:40;16.23;;;3.40;;
69841;SDS011;57138;51.326;-0.068;2023-10-13T13:52:11;17.70;;;4.38;;
69841;SDS011;57138;51.326;-0.068;2023-10-13T13:54:45;19.60;;;3.22;;
69841;SDS011;57138;51.326;-0.068;2023-10-13T13:57:11;28.77;;;5.22;;
69841;SDS011;57138;51.326;-0.068;2023-10-13T13:59:38;17.02;;;2.85;;
69841;SDS011;57138;51.326;-0.068;2023-10-13T14:02:04;26.98;;;4.35;;
69841;SDS011;57138;51.326;-0.068;2023-10-13T14:04:45;26.15;;;4.75;;
69841;SDS011;57138;51.326;-0.068;2023-10-13T14:07:12;16.67;;;3.45;;
69841;SDS011;57138;51.326;-0.068;2023-10-13T14:09:40;18.17;;;3.80;;
69841;SDS011;57138;51.326;-0.068;2023-10-13T14:12:08;22.90;;;4.30;;
69841;SDS011;57138;51.326;-0.068;2023-10-13T14:14:52;19.10;;;2.90;;
69841;SDS011;57138;51.326;-0.068;2023-10-13T14:17:26;22.08;;;3.70;;
69841;SDS011;57138;51.326;-0.068;2023-10-13T14:19:57;16.00;;;3.33;;
69841;SDS011;57138;51.326;-0.068;2023-10-13T14:22:23;24.17;;;4.35;;
69841;SDS011;57138;51.326;-0.068;2023-10-13T14:24:50;23.20;;;3.55;;
69841;SDS011;57138;51.326;-0.068;2023-10-13T14:27:20;20.75;;;4.15;;
69841;SDS011;57138;51.326;-0.068;2023-10-13T14:29:48;17.17;;;3.17;;
69841;SDS011;57138;51.326;-0.068;2023-10-13T14:32:18;16.35;;;3.08;;
69841;SDS011;57138;51.326;-0.068;2023-10-13T14:34:47;23.50;;;3.75;;
69841;SDS011;57138;51.326;-0.068;2023-10-13T14:37:19;19.63;;;5.43;;
69841;SDS011;57138;51.326;-0.068;2023-10-13T14:39:52;15.02;;;3.33;;
69841;SDS011;57138;51.326;-0.068;2023-10-13T14:42:23;22.58;;;4.55;;
69841;SDS011;57138;51.326;-0.068;2023-10-13T14:44:52;18.40;;;3.83;;
69841;SDS011;57138;51.326;-0.068;2023-10-13T14:47:26;23.55;;;4.63;;
69841;SDS011;57138;51.326;-0.068;2023-10-13T14:49:56;22.13;;;3.70;;
69841;SDS011;57138;51.326;-0.068;2023-10-13T14:52:27;19.83;;;5.38;;
69841;SDS011;57138;51.326;-0.068;2023-10-13T14:54:56;18.20;;;3.50;;
69841;SDS011;57138;51.326;-0.068;2023-10-13T14:57:24;16.52;;;3.70;;
69841;SDS011;57138;51.326;-0.068;2023-10-13T14:59:56;10.63;;;2.10;;
69841;SDS011;57138;51.326;-0.068;2023-10-13T15:02:24;19.55;;;3.03;;
69841;SDS011;57138;51.326;-0.068;2023-10-13T15:04:50;24.98;;;3.13;;
69841;SDS011;57138;51.326;-0.068;2023-10-13T15:07:16;25.52;;;3.05;;
69841;SDS011;57138;51.326;-0.068;2023-10-13T15:09:42;19.17;;;3.70;;
69841;SDS011;57138;51.326;-0.068;2023-10-13T15:12:08;20.52;;;3.30;;
69841;SDS011;57138;51.326;-0.068;2023-10-13T15:14:40;21.08;;;4.13;;
69841;SDS011;57138;51.326;-0.068;2023-10-13T15:17:09;20.65;;;3.60;;
69841;SDS011;57138;51.326;-0.068;2023-10-13T15:19:35;24.88;;;3.63;;
69841;SDS011;57138;51.326;-0.068;2023-10-13T15:22:03;22.27;;;4.00;;
69841;SDS011;57138;51.326;-0.068;2023-10-13T15:24:32;28.10;;;4.55;;
69841;SDS011;57138;51.326;-0.068;2023-10-13T15:27:08;28.55;;;4.25;;
69841;SDS011;57138;51.326;-0.068;2023-10-13T15:29:34;24.55;;;4.43;;
69841;SDS011;57138;51.326;-0.068;2023-10-13T15:32:06;21.02;;;4.50;;
69841;SDS011;57138;51.326;-0.068;2023-10-13T15:34:40;19.48;;;2.80;;
69841;SDS011;57138;51.326;-0.068;2023-10-13T15:37:05;17.02;;;3.05;;
69841;SDS011;57138;51.326;-0.068;2023-10-13T15:39:30;15.93;;;3.10;;
69841;SDS011;57138;51.326;-0.068;2023-10-13T15:41:56;22.85;;;3.78;;
69841;SDS011;57138;51.326;-0.068;2023-10-13T15:44:27;13.98;;;3.08;;